Waiwera, New Zealand
Current Conditions -  °F | °C
As of 8:00 PM on Monday 24 Nov 2014 (Local Time) from NZWN Reporting Station
Few Clouds Few Clouds  
Wind Chill: 61°   Ceiling: Unl
Heat Index: 61°   Visibility: 6mi
Dew Point: 54°   Wind: 14mph
Humidity: 77%   Direction: 20°NNE
Pressure: 29.91"   Gusts: NA
Location:  41.55°S, 175.46°E
Report Text: NZWN 240800Z AUTO 02012KT 9999 FEW020/// 16/12 Q1013 BECMGFM0900 BKN008
Loading
Personal Weather Stations






























Interactive Weather Map New forecast layout! Learn more

10-Day Weather Forecast

Advertisements
Track Severe Weather on mobile